Chapleau Airport
CYLD : now visible

Airfield :











YOU CAN JOIN US ON...

 
LOGIN :

Register | Disclaimer

   EN    FR    IT 

 









Legend :    VFR   Marginal VFR   IFR   Intensive IFR   Very Intensive IFR
Visi :
Ceiling :
>= 8 km
>= 3000ft
5 to 8 km
1000 to 3000 ft
1500m to 5 km
500 to 1000 ft
800 to 1500m
200 to 500 ft
< 800m
< 200 ft
Symbols :   Thunderstorms  Fog  Heavy snow  Heavy precipitations  Wind > 20 kt






- Airport Elevation : 1470 ft
- IATA code : YLD


CYLD - Chapleau

CURRENT METAR :
  • 141528Z 02009KT 14SM OVC004 02/02 A2963 RMK NS8 SLP056

EXPIRED METARs :
  • 141500Z 02005KT 12SM -RA OVC004 02/02 A2963 RMK NS8 SLP055
  • 141400Z 01006KT 12SM -RA OVC002 02/02 A2962 RMK NS8 SLP052
  • 141300Z 00000KT 14SM -RA OVC009 02/02 A2962 RMK NS8 SLP051
  • 141200Z 00000KT 11SM -RA OVC022 01/01 A2962 RMK NS8 SLP052
  • 141100Z 00000KT 11SM -RA OVC026 01/01 A2961 RMK SC8 SLP047

TAF AMD TAF CYLD
Valid from the 14 at 14:00 until the 15 at 01:00 UTC


141427Z 1414/1501 01006KT 4SM -RA BR OVC002
TEMPO 1414/1417 P6SM -RA OVC015
FM141700 34007KT P6SM BKN020
TEMPO 1417/1501 BKN030 RMK NXT FCST BY 142000Z
CZYZ FIR / North America



MET'MAP, your aeronautical weather chart ! - Copyright ORBIFLY December 2007 - Disclaimer

ORBIFLY MET'MAP TEAM :

Programming & Development : Alexandra Zaïnal
Original concept : Baudouin d'Aumeries
Technical & hardware support : Manuel Goepfert
Assistance : Marc-Olivier Méhu




SOURCES & CREDITS :

   NOAA       Earth
Advisory